createdAt,value
2019-03-30T00:00:51.588Z,-441.02
2019-03-30T00:01:51.935Z,-442.44
2019-03-30T00:02:52.400Z,-446.04
2019-03-30T00:03:52.599Z,-444.05
2019-03-30T00:04:52.953Z,-444.71
2019-03-30T00:05:53.272Z,-446.62
2019-03-30T00:06:53.609Z,-444.37
2019-03-30T00:07:53.951Z,-444.86
2019-03-30T00:08:54.283Z,-448.65
2019-03-30T00:09:54.648Z,-444.20
2019-03-30T00:10:55.086Z,-443.01
2019-03-30T00:11:57.718Z,-440.41
2019-03-30T00:12:55.655Z,-442.41
2019-03-30T00:13:55.975Z,-445.26
2019-03-30T00:14:56.304Z,-445.61
2019-03-30T00:15:56.649Z,-444.47
2019-03-30T00:16:56.998Z,-445.13
2019-03-30T00:17:57.351Z,-444.61
2019-03-30T00:18:57.716Z,-449.35
2019-03-30T00:19:57.981Z,-447.82
2019-03-30T00:20:58.340Z,-448.84
2019-03-30T00:21:58.678Z,-444.98
2019-03-30T00:22:59.048Z,-449.79
2019-03-30T00:23:59.352Z,-447.63
2019-03-30T00:24:59.678Z,-446.86
2019-03-30T00:26:00.050Z,-449.38
2019-03-30T00:27:00.397Z,-449.90
2019-03-30T00:28:00.706Z,-444.89
2019-03-30T00:29:01.028Z,-444.94
2019-03-30T00:30:01.368Z,-446.78
2019-03-30T00:31:01.714Z,-447.32
2019-03-30T00:32:02.048Z,-446.54
2019-03-30T00:33:02.441Z,-446.30
2019-03-30T00:34:02.729Z,-447.10
2019-03-30T00:35:03.088Z,-448.84
2019-03-30T00:36:03.523Z,-449.07
2019-03-30T00:37:03.732Z,-450.88
2019-03-30T00:38:04.114Z,-447.95
2019-03-30T00:39:04.417Z,-446.89
2019-03-30T00:40:04.746Z,-450.69
2019-03-30T00:41:05.118Z,-448.38
2019-03-30T00:42:05.420Z,-448.49
2019-03-30T00:43:05.777Z,-450.36
2019-03-30T00:44:06.208Z,-450.21
2019-03-30T00:45:06.414Z,-449.27
2019-03-30T00:46:10.895Z,-452.20
2019-03-30T00:47:07.134Z,-445.97
2019-03-30T00:48:07.476Z,-444.48
2019-03-30T00:49:07.862Z,-446.42
2019-03-30T00:50:08.130Z,-445.31
2019-03-30T00:51:08.482Z,-446.42
2019-03-30T00:52:08.908Z,-448.49
2019-03-30T00:53:09.151Z,-447.43
2019-03-30T00:54:09.499Z,-449.30
2019-03-30T00:55:09.810Z,-448.12
2019-03-30T00:56:10.186Z,-445.99
2019-03-30T00:57:10.467Z,-448.48
2019-03-30T00:58:10.823Z,-447.09
2019-03-30T00:59:11.157Z,-449.52
2019-03-30T01:00:11.527Z,-447.79
2019-03-30T01:01:11.846Z,-445.99
2019-03-30T01:02:12.139Z,-448.16
2019-03-30T01:03:12.498Z,-446.57
2019-03-30T01:04:12.846Z,-448.70
2019-03-30T01:05:13.161Z,-449.96
2019-03-30T01:06:13.524Z,-446.39
2019-03-30T01:07:13.848Z,-447.85
2019-03-30T01:08:14.252Z,-445.81
2019-03-30T01:09:14.557Z,-444.04
2019-03-30T01:10:14.862Z,-446.74
2019-03-30T01:11:15.459Z,-444.28
2019-03-30T01:12:15.548Z,-445.27
2019-03-30T01:13:15.894Z,-442.52
2019-03-30T01:14:16.207Z,-446.35
2019-03-30T01:15:16.550Z,-446.03
2019-03-30T01:16:16.917Z,-443.81
2019-03-30T01:17:17.361Z,-448.98
2019-03-30T01:18:17.573Z,-423.05
2019-03-30T01:19:17.914Z,-421.23
2019-03-30T01:20:18.254Z,-419.29
2019-03-30T01:21:18.608Z,-420.88
2019-03-30T01:22:18.938Z,-447.39
2019-03-30T01:23:19.277Z,-446.66
2019-03-30T01:24:19.590Z,-445.87
2019-03-30T01:25:20.050Z,-447.23
2019-03-30T01:26:20.285Z,-446.46
2019-03-30T01:27:20.620Z,-449.46
2019-03-30T01:28:20.955Z,-446.63
2019-03-30T01:29:21.280Z,-447.00
2019-03-30T01:30:23.274Z,-447.31
2019-03-30T01:31:21.980Z,-447.21
2019-03-30T01:32:22.299Z,-448.53
2019-03-30T01:33:22.687Z,-447.76
2019-03-30T01:34:22.968Z,-447.90
2019-03-30T01:35:23.463Z,-449.81
2019-03-30T01:36:23.687Z,-447.86
2019-03-30T01:37:24.007Z,-447.71
2019-03-30T01:38:24.352Z,-447.08
2019-03-30T01:39:24.709Z,-448.53
2019-03-30T01:40:25.027Z,-446.27
2019-03-30T01:41:25.405Z,-447.57
2019-03-30T01:42:25.700Z,-448.35
2019-03-30T01:43:26.032Z,-447.82
2019-03-30T01:44:26.408Z,-446.46
2019-03-30T01:45:26.718Z,-447.89
2019-03-30T01:46:27.064Z,-449.26
2019-03-30T01:47:27.395Z,-447.29
2019-03-30T01:48:27.730Z,-447.80
2019-03-30T01:49:28.170Z,-447.61
2019-03-30T01:50:28.466Z,-446.49
2019-03-30T01:51:28.768Z,-444.05
2019-03-30T01:52:29.100Z,-421.99
2019-03-30T01:53:29.439Z,-424.35
2019-03-30T01:54:29.839Z,-425.33
2019-03-30T01:55:30.115Z,-424.38
2019-03-30T01:56:30.458Z,-422.36
2019-03-30T01:57:30.792Z,-422.76
2019-03-30T01:58:31.275Z,-423.30
2019-03-30T01:59:31.497Z,-422.92
2019-03-30T02:00:31.799Z,-423.39
2019-03-30T02:01:32.136Z,-447.50
2019-03-30T02:02:32.483Z,-448.78
2019-03-30T02:03:32.835Z,-447.00
2019-03-30T02:04:33.198Z,-449.78
2019-03-30T02:05:33.504Z,-447.21
2019-03-30T02:06:33.939Z,-446.31
2019-03-30T02:07:34.168Z,-445.83
2019-03-30T02:08:34.526Z,-450.30
2019-03-30T02:09:34.902Z,-445.35
2019-03-30T02:10:35.199Z,-447.90
2019-03-30T02:11:35.562Z,-446.35
2019-03-30T02:12:35.879Z,-447.51
2019-03-30T02:13:36.212Z,-448.15
2019-03-30T02:14:36.621Z,-446.81
2019-03-30T02:15:36.885Z,-445.80
2019-03-30T02:16:37.253Z,-446.16
2019-03-30T02:17:37.564Z,-446.14
2019-03-30T02:18:37.887Z,-445.43
2019-03-30T02:19:38.273Z,-446.17
2019-03-30T02:20:38.582Z,-445.21
2019-03-30T02:21:38.948Z,-446.47
2019-03-30T02:22:39.297Z,-445.17
2019-03-30T02:23:39.633Z,-446.29
2019-03-30T02:24:39.969Z,-445.23
2019-03-30T02:25:40.269Z,-445.55
2019-03-30T02:26:40.644Z,-448.18
2019-03-30T02:27:40.964Z,-446.38
2019-03-30T02:28:41.286Z,-443.77
2019-03-30T02:29:41.623Z,-446.53
2019-03-30T02:30:42.081Z,-448.65
2019-03-30T02:31:42.424Z,-448.16
2019-03-30T02:32:42.628Z,-446.58
2019-03-30T02:33:42.953Z,-448.29
2019-03-30T02:34:43.324Z,-447.00
2019-03-30T02:35:43.662Z,-448.78
2019-03-30T02:36:43.986Z,-447.56
2019-03-30T02:37:44.339Z,-447.60
2019-03-30T02:38:44.760Z,-448.74
2019-03-30T02:39:45.116Z,-446.37
2019-03-30T02:40:45.363Z,-448.70
2019-03-30T02:41:45.683Z,-447.82
2019-03-30T02:42:46.039Z,-447.23
2019-03-30T02:43:46.372Z,-450.27
2019-03-30T02:44:46.717Z,-445.66
2019-03-30T02:45:47.067Z,-448.44
2019-03-30T02:46:47.378Z,-447.78
2019-03-30T02:47:47.931Z,-448.86
2019-03-30T02:48:48.274Z,-447.61
2019-03-30T02:49:48.391Z,-448.73
2019-03-30T02:50:50.367Z,-448.45
2019-03-30T02:51:49.062Z,-446.81
2019-03-30T02:52:49.418Z,-449.01
2019-03-30T02:53:49.743Z,-449.19
2019-03-30T02:54:50.092Z,-448.24
2019-03-30T02:55:50.465Z,-448.46
2019-03-30T02:56:50.740Z,-444.44
2019-03-30T02:57:51.085Z,-443.46
2019-03-30T02:58:51.427Z,-443.41
2019-03-30T02:59:51.767Z,-445.74
2019-03-30T03:00:52.110Z,-444.59
2019-03-30T03:01:52.411Z,-445.92
2019-03-30T03:02:52.777Z,-447.05
2019-03-30T03:03:53.124Z,-447.96
2019-03-30T03:04:53.545Z,-446.38
2019-03-30T03:05:53.785Z,-446.34
2019-03-30T03:06:54.089Z,-443.39
2019-03-30T03:07:54.479Z,-448.58
2019-03-30T03:08:54.783Z,-446.96
2019-03-30T03:09:55.143Z,-446.99
2019-03-30T03:10:55.950Z,-442.89
2019-03-30T03:11:55.798Z,-444.16
2019-03-30T03:12:56.289Z,-444.21
2019-03-30T03:13:56.480Z,-446.32
2019-03-30T03:14:56.821Z,-445.80
2019-03-30T03:15:57.154Z,-445.87
2019-03-30T03:16:57.479Z,-445.52
2019-03-30T03:17:57.847Z,-447.00
2019-03-30T03:18:58.185Z,-444.32
2019-03-30T03:19:58.528Z,-445.46
2019-03-30T03:21:07.526Z,-447.41
2019-03-30T03:22:00.162Z,-445.46
2019-03-30T03:22:59.531Z,-448.35
2019-03-30T03:23:59.869Z,-448.22
2019-03-30T03:25:00.567Z,-446.78
2019-03-30T03:26:00.559Z,-447.99
2019-03-30T03:27:00.883Z,-446.51
2019-03-30T03:28:01.241Z,-446.17
2019-03-30T03:29:01.591Z,-444.55
2019-03-30T03:30:01.893Z,-447.41
2019-03-30T03:31:02.262Z,-445.46
2019-03-30T03:32:02.554Z,-444.19
2019-03-30T03:33:02.909Z,-445.46
2019-03-30T03:34:03.214Z,-444.98
2019-03-30T03:35:03.568Z,-446.70
2019-03-30T03:36:03.928Z,-448.10
2019-03-30T03:37:04.305Z,-447.17
2019-03-30T03:38:04.680Z,-449.28
2019-03-30T03:39:04.906Z,-446.70
2019-03-30T03:40:05.262Z,-444.64
2019-03-30T03:41:05.643Z,-447.28
2019-03-30T03:42:06.007Z,-445.50
2019-03-30T03:43:06.328Z,-449.17
2019-03-30T03:44:06.657Z,-448.38
2019-03-30T03:45:06.977Z,-448.70
2019-03-30T03:46:07.884Z,-448.83
2019-03-30T03:47:07.681Z,-448.79
2019-03-30T03:48:08.036Z,-446.96
2019-03-30T03:49:08.357Z,-447.92
2019-03-30T03:50:08.669Z,-445.48
2019-03-30T03:51:24.474Z,-444.83
2019-03-30T03:52:10.369Z,-443.65
2019-03-30T03:53:09.732Z,-446.90
2019-03-30T03:54:10.114Z,-445.13
2019-03-30T03:55:10.394Z,-445.05
2019-03-30T03:56:10.763Z,-447.70
2019-03-30T03:57:11.084Z,-448.36
2019-03-30T03:58:11.528Z,-446.86
2019-03-30T03:59:11.764Z,-445.92
2019-03-30T04:00:12.093Z,-447.40
2019-03-30T04:01:12.450Z,-446.54
2019-03-30T04:02:12.848Z,-447.97
2019-03-30T04:03:13.117Z,-448.13
2019-03-30T04:04:13.444Z,-444.51
2019-03-30T04:05:13.783Z,-450.41
2019-03-30T04:06:14.247Z,-449.65
2019-03-30T04:07:14.457Z,-449.22
2019-03-30T04:08:14.816Z,-450.32
2019-03-30T04:09:15.129Z,-450.48
2019-03-30T04:10:15.505Z,-447.67
2019-03-30T04:11:15.919Z,-451.07
2019-03-30T04:12:16.361Z,-450.20
2019-03-30T04:13:16.645Z,-447.69
2019-03-30T04:14:16.969Z,-448.76
2019-03-30T04:15:17.312Z,-449.16
2019-03-30T04:16:17.916Z,-448.77
2019-03-30T04:17:18.000Z,-446.45
2019-03-30T04:18:18.357Z,-447.45
2019-03-30T04:19:18.771Z,-447.69
2019-03-30T04:20:19.029Z,-448.16
2019-03-30T04:21:19.406Z,-447.22
2019-03-30T04:22:19.704Z,-447.22
2019-03-30T04:23:20.079Z,-446.41
2019-03-30T04:24:20.461Z,-447.25
2019-03-30T04:25:20.769Z,-444.75
2019-03-30T04:26:21.151Z,-447.51
2019-03-30T04:27:21.556Z,-450.23
2019-03-30T04:28:22.037Z,-448.01
2019-03-30T04:29:22.186Z,-449.74
2019-03-30T04:30:22.496Z,-446.57
2019-03-30T04:31:22.877Z,-448.69
2019-03-30T04:32:23.284Z,-448.84
2019-03-30T04:33:23.543Z,-447.87
2019-03-30T04:34:23.849Z,-449.40
2019-03-30T04:35:24.261Z,-450.06
2019-03-30T04:36:24.560Z,-448.62
2019-03-30T04:37:24.890Z,-448.09
2019-03-30T04:38:25.251Z,-448.27
2019-03-30T04:39:25.554Z,-447.06
2019-03-30T04:40:25.923Z,-448.02
2019-03-30T04:41:26.315Z,-446.40
2019-03-30T04:42:26.609Z,-448.01
2019-03-30T04:43:27.031Z,-444.67
2019-03-30T04:44:27.201Z,-445.64
2019-03-30T04:45:27.548Z,-444.54
2019-03-30T04:46:27.917Z,-445.02
2019-03-30T04:47:28.226Z,-447.87
2019-03-30T04:48:29.520Z,-446.52
2019-03-30T04:49:28.926Z,-448.25
2019-03-30T04:50:29.267Z,-447.11
2019-03-30T04:51:29.883Z,-447.92
2019-03-30T04:52:30.069Z,-450.23
2019-03-30T04:53:30.347Z,-448.49
2019-03-30T04:54:30.678Z,-448.05
2019-03-30T04:55:31.026Z,-445.74
2019-03-30T04:56:31.727Z,-447.71
2019-03-30T04:57:31.737Z,-451.37
2019-03-30T04:58:32.081Z,-449.33
2019-03-30T04:59:32.454Z,-447.64
2019-03-30T05:00:32.869Z,-447.83
2019-03-30T05:01:33.200Z,-445.17
2019-03-30T05:02:33.471Z,-447.91
2019-03-30T05:03:33.813Z,-447.84
2019-03-30T05:04:34.170Z,-447.79
2019-03-30T05:05:34.480Z,-447.22
2019-03-30T05:06:34.880Z,-447.21
2019-03-30T05:07:35.187Z,-447.20
2019-03-30T05:08:35.617Z,-448.62
2019-03-30T05:09:35.882Z,-447.88
2019-03-30T05:10:36.194Z,-448.37
2019-03-30T05:11:36.591Z,-444.25
2019-03-30T05:12:36.895Z,-447.47
2019-03-30T05:13:37.241Z,-447.49
2019-03-30T05:14:37.601Z,-446.51
2019-03-30T05:15:37.939Z,-451.11
2019-03-30T05:16:38.346Z,-447.26
2019-03-30T05:17:46.934Z,-448.72
2019-03-30T05:18:39.967Z,-445.06
2019-03-30T05:19:39.326Z,-449.88
2019-03-30T05:20:39.678Z,-448.43
2019-03-30T05:21:40.023Z,-447.91
2019-03-30T05:22:40.318Z,-449.03
2019-03-30T05:23:40.669Z,-450.29
2019-03-30T05:24:41.089Z,-448.13
2019-03-30T05:25:41.386Z,-450.17
2019-03-30T05:26:41.736Z,-446.94
2019-03-30T05:27:42.084Z,-449.75
2019-03-30T05:28:42.387Z,-450.39
2019-03-30T05:29:42.767Z,-449.05
2019-03-30T05:30:43.131Z,-448.20
2019-03-30T05:31:43.461Z,-446.25
2019-03-30T05:32:43.809Z,-449.83
2019-03-30T05:33:44.203Z,-448.17
2019-03-30T05:34:44.488Z,-449.14
2019-03-30T05:35:44.827Z,-449.40
2019-03-30T05:36:45.183Z,-446.21
2019-03-30T05:37:45.513Z,-448.25
2019-03-30T05:38:45.858Z,-449.76
2019-03-30T05:39:46.202Z,-447.44
2019-03-30T05:40:46.531Z,-446.72
2019-03-30T05:41:47.036Z,-449.34
2019-03-30T05:42:47.237Z,-448.37
2019-03-30T05:43:47.552Z,-447.72
2019-03-30T05:44:47.935Z,-446.27
2019-03-30T05:45:48.286Z,-445.22
2019-03-30T05:46:48.648Z,-447.25
2019-03-30T05:47:48.980Z,-447.13
2019-03-30T05:48:49.312Z,-448.04
2019-03-30T05:49:49.716Z,-448.43
2019-03-30T05:50:49.986Z,-448.08
2019-03-30T05:51:50.367Z,-449.23
2019-03-30T05:52:50.721Z,-447.89
2019-03-30T05:53:51.037Z,-449.66
2019-03-30T05:54:51.397Z,-448.66
2019-03-30T05:55:51.708Z,-449.60
2019-03-30T05:56:52.054Z,-449.50
2019-03-30T05:57:52.506Z,-449.34
2019-03-30T05:58:52.734Z,-449.87
2019-03-30T05:59:55.659Z,-450.20
2019-03-30T06:00:53.429Z,-451.42
2019-03-30T06:01:53.763Z,-450.18
2019-03-30T06:02:54.193Z,-448.80
2019-03-30T06:03:54.505Z,-449.38
2019-03-30T06:04:54.870Z,-449.58
2019-03-30T06:05:55.212Z,-448.01
2019-03-30T06:06:55.575Z,-448.18
2019-03-30T06:07:55.926Z,-449.08
2019-03-30T06:08:56.463Z,-449.02
2019-03-30T06:09:56.578Z,-447.64
2019-03-30T06:10:56.912Z,-451.00
2019-03-30T06:11:57.257Z,-450.62
2019-03-30T06:12:57.651Z,-449.48
2019-03-30T06:13:57.940Z,-449.39
2019-03-30T06:14:58.411Z,-449.31
2019-03-30T06:15:58.647Z,-450.04
2019-03-30T06:16:58.992Z,-450.01
2019-03-30T06:17:59.363Z,-451.51
2019-03-30T06:18:59.666Z,-448.86
2019-03-30T06:20:00.048Z,-450.46
2019-03-30T06:21:00.378Z,-449.45
2019-03-30T06:22:00.724Z,-448.91
2019-03-30T06:23:01.248Z,-449.54
2019-03-30T06:24:01.385Z,-449.35
2019-03-30T06:25:01.770Z,-450.29
2019-03-30T06:26:02.091Z,-448.78
2019-03-30T06:27:02.427Z,-427.40
2019-03-30T06:28:02.824Z,-425.42
2019-03-30T06:29:03.125Z,-425.22
2019-03-30T06:30:03.481Z,-427.81
2019-03-30T06:31:03.864Z,-424.47
2019-03-30T06:32:04.140Z,-422.09
2019-03-30T06:33:04.529Z,-422.43
2019-03-30T06:34:04.831Z,-423.44
2019-03-30T06:35:05.198Z,-424.48
2019-03-30T06:36:05.502Z,-424.27
2019-03-30T06:37:05.860Z,-422.81
2019-03-30T06:38:06.265Z,-424.38
2019-03-30T06:39:06.584Z,-425.39
2019-03-30T06:40:06.922Z,-425.12
2019-03-30T06:41:07.232Z,-424.61
2019-03-30T06:42:07.590Z,-424.63
2019-03-30T06:43:08.162Z,-426.23
2019-03-30T06:44:08.277Z,-425.72
2019-03-30T06:45:08.626Z,-424.66
2019-03-30T06:46:08.966Z,-423.89
2019-03-30T06:47:09.322Z,-423.13
2019-03-30T06:48:09.802Z,-421.72
2019-03-30T06:49:10.003Z,-424.41
2019-03-30T06:50:10.356Z,-425.46
2019-03-30T06:51:10.675Z,-424.07
2019-03-30T06:52:11.053Z,-425.89
2019-03-30T06:53:11.409Z,-425.62
2019-03-30T06:54:14.555Z,-423.66
2019-03-30T06:55:12.168Z,-423.29
2019-03-30T06:56:12.541Z,-422.42
2019-03-30T06:57:12.770Z,-421.90
2019-03-30T06:58:13.126Z,-422.09
2019-03-30T06:59:13.461Z,-423.72
2019-03-30T07:00:13.796Z,-422.10
2019-03-30T07:01:14.144Z,-422.64
2019-03-30T07:02:14.471Z,-422.66
2019-03-30T07:03:14.846Z,-425.75
2019-03-30T07:04:15.250Z,-424.16
2019-03-30T07:05:15.519Z,-424.20
2019-03-30T07:06:15.889Z,-424.75
2019-03-30T07:07:16.227Z,-424.85
2019-03-30T07:08:16.575Z,-420.91
2019-03-30T07:09:16.928Z,-422.10
2019-03-30T07:10:17.261Z,-423.29
2019-03-30T07:11:21.347Z,-423.16
2019-03-30T07:12:18.014Z,-423.33
2019-03-30T07:13:18.289Z,-425.73
2019-03-30T07:14:18.631Z,-423.96
2019-03-30T07:15:18.982Z,-424.70
2019-03-30T07:16:19.347Z,-423.79
2019-03-30T07:17:19.673Z,-423.26
2019-03-30T07:18:20.041Z,-424.07
2019-03-30T07:19:20.375Z,-424.71
2019-03-30T07:20:20.718Z,-423.83
2019-03-30T07:21:21.161Z,-424.39
2019-03-30T07:22:21.420Z,-423.95
2019-03-30T07:23:21.759Z,-424.13
2019-03-30T07:24:22.068Z,-425.90
2019-03-30T07:25:22.414Z,-423.38
2019-03-30T07:26:22.787Z,-425.99
2019-03-30T07:27:23.115Z,-425.27
2019-03-30T07:28:23.481Z,-423.76
2019-03-30T07:29:23.909Z,-423.96
2019-03-30T07:30:24.145Z,-422.47
2019-03-30T07:31:24.516Z,-425.17
2019-03-30T07:32:24.848Z,-423.69
2019-03-30T07:33:25.221Z,-423.63
2019-03-30T07:34:25.552Z,-423.70
2019-03-30T07:35:25.874Z,-424.80
2019-03-30T07:36:26.237Z,-423.81
2019-03-30T07:37:26.663Z,-424.31
2019-03-30T07:38:26.924Z,-423.84
2019-03-30T07:39:27.286Z,-421.98
2019-03-30T07:40:27.597Z,-424.85
2019-03-30T07:41:27.945Z,-425.15
2019-03-30T07:42:28.288Z,-422.54
2019-03-30T07:43:28.653Z,-425.55
2019-03-30T07:44:28.996Z,-424.89
2019-03-30T07:45:29.355Z,-425.57
2019-03-30T07:46:29.665Z,-427.45
2019-03-30T07:47:29.986Z,-424.29
2019-03-30T07:48:30.615Z,-426.52
2019-03-30T07:49:30.681Z,-426.31
2019-03-30T07:50:31.029Z,-427.83
2019-03-30T07:51:33.149Z,-424.54
2019-03-30T07:52:31.761Z,-425.57
2019-03-30T07:53:43.573Z,-423.96
2019-03-30T07:54:33.433Z,-426.34
2019-03-30T07:55:32.765Z,-426.42
2019-03-30T07:56:33.145Z,-425.38
2019-03-30T07:57:33.445Z,-425.59
2019-03-30T07:58:33.797Z,-424.85
2019-03-30T07:59:34.153Z,-424.33
2019-03-30T08:00:34.515Z,-426.73
2019-03-30T08:01:34.861Z,-423.51
2019-03-30T08:02:35.298Z,-423.47
2019-03-30T08:03:35.512Z,-420.81
2019-03-30T08:04:35.883Z,-420.71
2019-03-30T08:05:36.305Z,-424.33
2019-03-30T08:06:36.595Z,-425.90
2019-03-30T08:07:36.915Z,-424.05
2019-03-30T08:08:37.262Z,-425.74
2019-03-30T08:09:37.591Z,-426.12
2019-03-30T08:10:38.079Z,-425.14
2019-03-30T08:11:38.323Z,-430.07
2019-03-30T08:12:38.645Z,-428.07
2019-03-30T08:13:38.984Z,-427.98
2019-03-30T08:14:39.408Z,-424.92
2019-03-30T08:15:39.703Z,-428.11
2019-03-30T08:16:40.070Z,-429.22
2019-03-30T08:17:40.396Z,-428.77
2019-03-30T08:18:40.763Z,-429.56
2019-03-30T08:19:41.085Z,-428.64
2019-03-30T08:20:41.408Z,-426.70
2019-03-30T08:21:41.782Z,-429.14
2019-03-30T08:22:42.106Z,-428.98
2019-03-30T08:23:42.452Z,-429.34
2019-03-30T08:24:42.813Z,-430.25
2019-03-30T08:25:43.152Z,-429.66
2019-03-30T08:26:43.522Z,-428.05
2019-03-30T08:27:43.810Z,-433.10
2019-03-30T08:28:44.164Z,-431.14
2019-03-30T08:29:44.528Z,-431.29
2019-03-30T08:30:44.863Z,-428.75
2019-03-30T08:31:45.219Z,-428.95
2019-03-30T08:32:45.529Z,-432.39
2019-03-30T08:33:45.896Z,-426.51
2019-03-30T08:34:46.281Z,-426.50
2019-03-30T08:35:46.736Z,-433.85
2019-03-30T08:36:46.968Z,-431.55
2019-03-30T08:37:47.352Z,-434.10
2019-03-30T08:38:47.647Z,-431.40
2019-03-30T08:39:48.020Z,-432.11
2019-03-30T08:40:48.444Z,-403.58
2019-03-30T08:41:49.032Z,-423.32
2019-03-30T08:42:49.145Z,-425.50
2019-03-30T08:43:50.126Z,-421.25
2019-03-30T08:44:50.032Z,-428.35
2019-03-30T08:45:51.376Z,-427.70
2019-03-30T08:46:50.425Z,-430.36
2019-03-30T08:47:50.748Z,-427.58
2019-03-30T08:48:51.073Z,-430.75
2019-03-30T08:49:51.450Z,-429.03
2019-03-30T08:50:51.805Z,-426.76
2019-03-30T08:51:53.033Z,-425.39
2019-03-30T08:52:52.451Z,-428.50
2019-03-30T08:53:54.849Z,-433.50
2019-03-30T08:54:53.595Z,-431.94
2019-03-30T08:55:53.970Z,-428.28
2019-03-30T08:56:53.850Z,-425.95
2019-03-30T08:57:54.177Z,-429.88
2019-03-30T08:58:54.513Z,-432.48
2019-03-30T08:59:54.915Z,-438.23
2019-03-30T09:00:55.210Z,-433.71
2019-03-30T09:01:55.584Z,-433.53
2019-03-30T09:02:55.887Z,-435.08
2019-03-30T09:03:57.536Z,-432.90
2019-03-30T09:05:06.030Z,-434.81
2019-03-30T09:06:00.037Z,-437.31
2019-03-30T09:06:57.294Z,-437.00
2019-03-30T09:07:57.661Z,-437.61
2019-03-30T09:09:01.129Z,-435.91
2019-03-30T09:09:58.338Z,-439.70
2019-03-30T09:10:58.666Z,-440.49
2019-03-30T09:11:58.997Z,-443.25
2019-03-30T09:12:59.353Z,-425.91
2019-03-30T09:14:06.051Z,-428.11
2019-03-30T09:15:00.172Z,-437.67
2019-03-30T09:16:01.576Z,-428.89
2019-03-30T09:17:01.948Z,-432.30
2019-03-30T09:18:01.108Z,-433.43
2019-03-30T09:19:02.128Z,-436.99
2019-03-30T09:20:05.537Z,-438.80
2019-03-30T09:21:02.144Z,-439.93
2019-03-30T09:22:02.575Z,-439.77
2019-03-30T09:23:03.051Z,-437.47
2019-03-30T09:24:10.111Z,-439.88
2019-03-30T09:25:03.603Z,-436.66
2019-03-30T09:26:07.348Z,-440.14
2019-03-30T09:27:05.046Z,-441.85
2019-03-30T09:28:08.866Z,-439.85
2019-03-30T09:29:05.524Z,-444.59
2019-03-30T09:30:06.005Z,-443.52
2019-03-30T09:31:06.043Z,-449.78
2019-03-30T09:32:14.253Z,-447.00
2019-03-30T09:33:07.305Z,-447.03
2019-03-30T09:34:07.045Z,-443.10
2019-03-30T09:35:06.952Z,-440.47
2019-03-30T09:36:07.374Z,-439.98
2019-03-30T09:37:08.825Z,-433.04
2019-03-30T09:38:10.394Z,-440.28
2019-03-30T09:39:09.372Z,-442.28
2019-03-30T09:40:08.675Z,-439.58
2019-03-30T09:41:10.039Z,-435.81
2019-03-30T09:42:16.196Z,-440.54
2019-03-30T09:43:12.049Z,-435.21
2019-03-30T09:44:10.550Z,-441.84
2019-03-30T09:45:14.799Z,-444.12
2019-03-30T09:46:12.354Z,-445.47
2019-03-30T09:47:11.566Z,-444.54
2019-03-30T09:48:11.466Z,-444.13
2019-03-30T09:49:11.794Z,-442.73
2019-03-30T09:50:13.042Z,-442.94
2019-03-30T09:51:12.556Z,-443.01
2019-03-30T09:52:13.690Z,-443.83
2019-03-30T09:53:14.573Z,-441.20
2019-03-30T09:54:23.133Z,-443.53
2019-03-30T09:55:14.870Z,-400.30
2019-03-30T09:56:15.071Z,-403.09
2019-03-30T09:57:14.564Z,-408.94
2019-03-30T09:58:14.969Z,-424.82
2019-03-30T09:59:15.214Z,-433.68
2019-03-30T10:00:15.558Z,-433.54
2019-03-30T10:01:15.905Z,-437.58
2019-03-30T10:02:16.242Z,-444.62
2019-03-30T10:03:16.609Z,-438.21
2019-03-30T10:04:16.976Z,-448.39
2019-03-30T10:05:17.299Z,-447.60
2019-03-30T10:06:17.735Z,-441.18
2019-03-30T10:07:19.651Z,-437.09
2019-03-30T10:08:18.321Z,-442.84
2019-03-30T10:09:18.643Z,-443.02
2019-03-30T10:10:19.554Z,-445.76
2019-03-30T10:11:19.563Z,-443.85
2019-03-30T10:12:19.665Z,-441.51
2019-03-30T10:13:21.698Z,-440.32
2019-03-30T10:14:20.435Z,-442.19
2019-03-30T10:15:21.566Z,-437.42
2019-03-30T10:16:21.307Z,-443.27
2019-03-30T10:17:21.405Z,-442.65
2019-03-30T10:18:21.748Z,-445.88
2019-03-30T10:19:22.097Z,-444.69
2019-03-30T10:20:22.460Z,-444.94
2019-03-30T10:21:22.855Z,-446.51
2019-03-30T10:22:23.217Z,-442.45
2019-03-30T10:23:23.578Z,-442.82
2019-03-30T10:24:36.998Z,-442.17
2019-03-30T10:25:25.262Z,-441.44
2019-03-30T10:26:24.643Z,-436.69
2019-03-30T10:27:24.956Z,-440.99
2019-03-30T10:28:25.319Z,-437.68
2019-03-30T10:29:26.070Z,-442.79
2019-03-30T10:30:25.985Z,-438.85
2019-03-30T10:31:26.528Z,-444.65
2019-03-30T10:32:28.439Z,-436.32
2019-03-30T10:33:27.558Z,-442.92
2019-03-30T10:34:28.061Z,-436.44
2019-03-30T10:35:27.737Z,-438.57
2019-03-30T10:36:28.124Z,-421.69
2019-03-30T10:37:28.405Z,-416.79
2019-03-30T10:38:28.778Z,-436.83
2019-03-30T10:39:29.188Z,-434.69
2019-03-30T10:40:29.433Z,-441.80
2019-03-30T10:41:30.560Z,-439.21
2019-03-30T10:42:32.077Z,-439.61
2019-03-30T10:43:31.062Z,-443.32
2019-03-30T10:44:32.573Z,-441.30
2019-03-30T10:45:31.345Z,-466.89
2019-03-30T10:46:33.136Z,-462.31
2019-03-30T10:47:31.945Z,-461.71
2019-03-30T10:48:32.563Z,-464.37
2019-03-30T10:49:32.539Z,-466.63
2019-03-30T10:50:32.877Z,-468.32
2019-03-30T10:51:49.806Z,-463.52
2019-03-30T10:52:33.609Z,-469.43
2019-03-30T10:53:33.952Z,-462.70
2019-03-30T10:54:34.281Z,-466.76
2019-03-30T10:55:35.065Z,-422.92
2019-03-30T10:56:35.006Z,-463.08
2019-03-30T10:57:35.568Z,-466.06
2019-03-30T10:58:35.682Z,-467.43
2019-03-30T10:59:36.009Z,-436.78
2019-03-30T11:00:36.348Z,-467.76
2019-03-30T11:01:36.734Z,-469.60
2019-03-30T11:02:37.038Z,-467.74
2019-03-30T11:03:37.421Z,-464.17
2019-03-30T11:04:37.888Z,-463.28
2019-03-30T11:05:38.320Z,-431.58
2019-03-30T11:06:38.451Z,-457.57
2019-03-30T11:07:38.793Z,-462.67
2019-03-30T11:08:39.116Z,-464.30
2019-03-30T11:09:40.075Z,-460.31
2019-03-30T11:10:39.810Z,-463.85
2019-03-30T11:11:40.171Z,-468.74
2019-03-30T11:12:41.578Z,-466.53
2019-03-30T11:13:40.841Z,-468.31
2019-03-30T11:14:41.272Z,-472.33
2019-03-30T11:15:41.532Z,-463.85
2019-03-30T11:16:54.075Z,-463.68
2019-03-30T11:17:43.248Z,-457.09
2019-03-30T11:18:42.598Z,-465.52
2019-03-30T11:19:42.903Z,-472.38
2019-03-30T11:20:43.327Z,-466.96
2019-03-30T11:21:43.608Z,-465.80
2019-03-30T11:22:43.953Z,-468.95
2019-03-30T11:23:44.290Z,-477.57
2019-03-30T11:24:44.634Z,-465.22
2019-03-30T11:25:45.074Z,-467.99
2019-03-30T11:26:45.340Z,-462.37
2019-03-30T11:27:45.693Z,-471.82
2019-03-30T11:28:46.088Z,-467.07
2019-03-30T11:29:46.357Z,-463.34
2019-03-30T11:30:46.683Z,-470.23
2019-03-30T11:31:47.068Z,-463.38
2019-03-30T11:32:47.448Z,-468.62
2019-03-30T11:33:47.766Z,-476.55
2019-03-30T11:34:48.129Z,-469.44
2019-03-30T11:35:48.446Z,-476.19
2019-03-30T11:36:48.824Z,-474.68
2019-03-30T11:37:49.225Z,-464.79
2019-03-30T11:38:49.485Z,-474.69
2019-03-30T11:39:49.851Z,-469.94
2019-03-30T11:40:50.176Z,-467.19
2019-03-30T11:41:50.556Z,-465.15
2019-03-30T11:42:50.877Z,-462.48
2019-03-30T11:43:51.214Z,-464.79
2019-03-30T11:44:51.588Z,-474.72
2019-03-30T11:45:52.045Z,-463.19
2019-03-30T11:46:52.295Z,-463.87
2019-03-30T11:47:52.628Z,-463.80
2019-03-30T11:48:52.993Z,-466.27
2019-03-30T11:49:53.347Z,-468.22
2019-03-30T11:50:53.671Z,-465.92
2019-03-30T11:51:54.042Z,-467.59
2019-03-30T11:52:54.340Z,-465.56
2019-03-30T11:53:54.840Z,-461.40
2019-03-30T11:54:55.106Z,-463.89
2019-03-30T11:55:55.420Z,-458.33
2019-03-30T11:56:55.770Z,-461.31
2019-03-30T11:57:56.094Z,-464.27
2019-03-30T11:58:56.445Z,-452.74
2019-03-30T11:59:56.804Z,-457.67
2019-03-30T12:00:57.124Z,-459.06
2019-03-30T12:01:57.538Z,-464.96
2019-03-30T12:02:57.796Z,-465.72
2019-03-30T12:03:58.148Z,-460.85
2019-03-30T12:04:58.518Z,-463.99
2019-03-30T12:05:58.859Z,-455.94
2019-03-30T12:06:59.263Z,-465.57
2019-03-30T12:07:59.544Z,-461.90
2019-03-30T12:09:03.728Z,-457.98
2019-03-30T12:10:03.585Z,-458.16